Orleans, IN

2:33 PM EDT on September 26, 2016 (GMT -0400)
B&K Mundy Farms | | Change Station

Elev 656 ft 38.71 °N, 86.49 °W | Updated 14 minutes ago

Scattered Clouds
Scattered Clouds
65.7 °F
Feels Like 65.7 °F
N
6.0
Wind Variable Wind from NW
Gusts 8.0 mph

Today
High -- | Low -- °F
--% Chance of Precip.
Yesterday
High -- | Low -- °F
Precip. -- in
Pressure 30.08 in
Visibility 10.0 miles
Clouds Scattered Clouds 2500 ft
Scattered Clouds 3000 ft
Dew Point 54 °F
Humidity 66%
Rainfall 0.78 in
Snow Depth Not available.
7:37 AM 7:35 PM
Waning Crescent, 17% visible
METAR KBMG 261753Z 28009KT 10SM SCT025 SCT030 18/12 A3009 RMK AO2 SLP184 60000 T01830117 10183 20150 58007
Pressure 30.08 in
Visibility 10.0 miles
Clouds Scattered Clouds 2500 ft
Scattered Clouds 3000 ft
Dew Point 54 °F
Humidity 66%
Rainfall 0.78 in
Snow Depth Not available.
7:37 AM 7:35 PM
Waning Crescent, 17% visible
METAR KBMG 261753Z 28009KT 10SM SCT025 SCT030 18/12 A3009 RMK AO2 SLP184 60000 T01830117 10183 20150 58007

10-Day Weather Forecast

Almanac

Astronomy

Sep. 26, 2016 Rise Set
Actual Time
Civil Twilight
Nautical Twilight
Astronomical Twilight
Moon
Length of Visible Light
Length of Day
Tomorrow will be .
, % of the Moon is Illuminated

Today's Extremes

State Highs State Lows

Community

WunderPhotos

Upload Photos

1,941,948 photos uploaded!

WunderBlog® & News

Nearby

Air Quality

  Air Quality AQ Index Pollutant
Not available.

Snow Depth

Station Depth Elevation

Earthquake Activity

City Distance Mag. Time & Date
Minimum magnitude displayed is 2.5.

Coastal Water Temperatures

Place Temperature

Stations

Nearby Weather Stations

Station Location Temp. Windchill Dew Point Humidity Wind Precip. Elev Updated Type
                   

Watches & Warnings

There are currently no watches in effect.